KENL/ENL METAR and TAF weather

Enter ICAO airport designator
Station Type Date Time Source
KENL METAR 2019/06/17 15:35 UTC NOAA

KENL 171535Z AUTO 16005KT 10SM BKN015 OVC025 25/23 A2995 RMK AO2 T02450228


Station Type Date Time Source
KENL Decoded METAR 2019/06/17 15:35 UTC NOAA

Centralia, Centralia Municipal Airport, IL, United States (KENL) 38-30-53N 089-05-32W
Jun 17, 2019 - 11:35 AM EDT / 2019.06.17 1535 UTC
Wind: from the SSE (160 degrees) at 6 MPH (5 KT):0
Visibility: 10 mile(s):0
Sky conditions: overcast
Temperature: 76.1 F (24.5 C)
Dew Point: 73.0 F (22.8 C)
Relative Humidity: 90%
Pressure (altimeter): 29.95 in. Hg (1014 hPa)
ob: KENL 171535Z AUTO 16005KT 10SM BKN015 OVC025 25/23 A2995 RMK AO2 T02450228
cycle: 15

Station Type Date Time Source
KENL TAF UTC NOAA

Error!

Example: see airport list